AirNav   Air Wisconsin Airman Trainee
 
 474 users online  

0AL5 Flomaton Airport
Flomaton, Alabama, USA

GOING TO FLOMATON?


FAA INFORMATION EFFECTIVE 28 MARCH 2019

Location

FAA Identifier: 0AL5
Lat/Long: 31-01-56.0000N / 087-15-10.0000W
31-01.933333N / 087-15.166667W
31.0322222 / -87.2527778
(estimated)
Elevation: 247 ft. / 75 m (estimated)
Variation: 00E (1990)
From city: 2 miles NE of FLOMATON, AL
Time zone: UTC -5 (UTC -6 during Standard Time)
Zip code: 36441

Airport Operations

Airport use: Private use. Permission required prior to landing
Activation date: 03/1993
Control tower: no
ARTCC: JACKSONVILLE CENTER
FSS: ANNISTON FLIGHT SERVICE STATION
Attendance: UNATNDD
Segmented circle: no

Airport Communications

WX AWOS-3PT at 12J (10 nm E): 119.325 (251-809-2987)

Nearby radio navigation aids

VOR radial/distance  VOR name  Freq  Var
MVCr165/26.1MONROEVILLE VORTAC116.8004E
CEWr290/32.0CRESTVIEW VORTAC115.9003E
NUNr006/(33.9)SAUFLEY VOR108.8001E

 
NDB name  Hdg/Dist  Freq  Var  ID
PICKENS356/35.932602WPKZ .--. -.- --..

Airport Services

Runway Information

Runway 15/33

Dimensions: 2200 x 100 ft. / 671 x 30 m
Surface: turf
RUNWAY 15  RUNWAY 33
Traffic pattern: leftleft
Obstructions: none144 ft. tower, 2300 ft. from runway

Airport Ownership and Management from official FAA records

Ownership: Privately-owned
Owner: ALLEN HENDERSON
P.O. BOX 301
FLOMATON, AL 36441
Phone (251) 513-9533
Manager: ALLEN HENDERSON
P.O. BOX 301
FLOMATON, AL 36441
Phone (251) 513-9533

Airport Operational Statistics

Aircraft based on the field: 3
Single engine airplanes: 3
    

Instrument Procedures

There are no published instrument procedures at 0AL5.

Some nearby airports with instrument procedures:

12J - Brewton Municipal Airport (10 nm E)
0R1 - Atmore Municipal Airport (10 nm W)
KNSE - Whiting Field Naval Air Station North (22 nm SE)
KNDZ - Whiting Field Naval Air Station South (23 nm SE)
KGZH - Evergreen Regional Airport/Middleton Field (25 nm NE)
 
Loc | Ops | Rwys | IFR | FBO | Links
Com | Nav | Svcs | Stats | Notes
Area around 0AL5 (Flomaton Airport)
 
Road maps at: MapQuest Bing Google
 
Aerial photo
No photo
 
Sectional chart

 
Airport distance calculator
Flying to Flomaton Airport? Find the distance to fly.

From to 0AL5

Sunrise and sunset
Times for 23-Apr-2019
 Local
(UTC-5)
 Zulu
(UTC)
Morning civil twilight05:4810:48
Sunrise06:1311:13
Sunset19:2100:21
Evening civil twilight19:4700:47

Current date and time
Zulu (UTC)  23-Apr-2019 10:24:57
Local (UTC-5)  23-Apr-2019 05:24:57
 
METAR
KNSE 
23nm SE 
230956Z AUTO 00000KT 10SM CLR 08/08 A3011 RMK AO2 SLP184 T00830078 $
KNDZ 
23nm SE 
230956Z AUTO 00000KT 10SM CLR 08/08 A3012 RMK AO2 SLP185 T00830078 $
KGZH 
25nm NE 
230953Z AUTO 00000KT 9SM CLR 10/08 A3012 RMK AO2 SLP198 T01000078
2R4 
27nm SE 
SuperAWOS
230955Z AUTO 00000KT 09/08 A3010
KPNS 
33nm S 
230953Z AUTO 00000KT 10SM CLR 14/14 A3011 RMK AO2 SLP197 T01390139
KNPA 
41nm S 
230956Z AUTO 01003KT 10SM CLR 11/10 A3010 RMK AO2 SLP194 T01060100 $
KCEW 
41nm SE 
230953Z AUTO 00000KT 10SM CLR 08/06 A3012 RMK AO2 SLP199 T00780061 $
KEGI 
45nm SE 
230956Z AUTO 00000KT 10SM CLR 08/07 A3010 RMK AO2 SLP194 T00770069 $
TAF
KNSE 
23nm SE 
2307/2407 32010KT 9999 SCT300 QNH3007INS BECMG 2312/2314 06009KT 9999 SKC QNH3010INS BECMG 2320/2322 20010KT 9999 FEW20 QNH3007INS BECMG 2403/2405 VRB05KT 9999 OVC180 QNH3002INS AUTOMATED SENSOR METWATCH 2307 TIL 2311 T13/2312Z T27/2318Z COR 0735 FN00210
NOTAMs
Click for the latest NOTAMs
NOTAMs are issued by the DoD/FAA and will open in a separate window not controlled by AirNav.

 

 
 

Would you like to see your business listed on this page?

 If your business provides an interesting product or service to pilots, flight crews, aircraft, or users of the Flomaton Airport, you should consider listing it here.  To start the listing process, click on the button below
 
Add a business
 

Other Pages about Flomaton Airport

Update a link
 
Copyright © AirNav, LLC. All rights reserved. Privacy Policy  Contact